Time;durP1;ratioP1;P1;durP2;ratioP2;P2;SDS_P1;SDS_P2;PMS_P1;PMS_P2;Temp;Humidity;BMP_temperature;BMP_pressure;BME280_temperature;BME280_humidity;BME280_pressure;Samples;Min_cycle;Max_cycle;Signal;HPM_P1;HPM_P2
2022/09/18 00:00:56;;;;;;;2.73;0.40;;;;;;;12.52;100.00;100231.56;5038402;28;20475;-49
2022/09/18 00:03:23;;;;;;;0.40;0.30;;;;;;;12.55;100.00;100230.56;5044867;28;20451;-49
2022/09/18 00:05:49;;;;;;;0.40;0.30;;;;;;;12.37;100.00;100230.34;5044653;28;20512;-49
2022/09/18 00:08:15;;;;;;;3.83;0.40;;;;;;;12.46;100.00;100231.78;5038018;28;20558;-49
2022/09/18 00:10:45;;;;;;;1.03;0.40;;;;;;;12.45;100.00;100230.03;5025319;28;20456;-50
2022/09/18 00:13:13;;;;;;;0.50;0.40;;;;;;;12.49;100.00;100230.81;5026693;28;20481;-49
2022/09/18 00:15:40;;;;;;;0.50;0.50;;;;;;;12.49;100.00;100226.34;5038158;28;20499;-49
2022/09/18 00:18:07;;;;;;;3.60;0.40;;;;;;;12.45;100.00;100222.03;5051393;28;20870;-49
2022/09/18 00:20:35;;;;;;;0.73;0.57;;;;;;;12.51;100.00;100231.63;5037582;28;20862;-49
2022/09/18 00:23:01;;;;;;;0.50;0.30;;;;;;;12.51;100.00;100228.97;5044012;28;20458;-49
2022/09/18 00:25:28;;;;;;;0.53;0.53;;;;;;;12.57;100.00;100224.25;5037597;28;20481;-49
2022/09/18 00:27:55;;;;;;;4.67;0.60;;;;;;;12.51;100.00;100220.97;5042356;28;20451;-49
2022/09/18 00:30:21;;;;;;;3.80;0.60;;;;;;;12.57;100.00;100226.03;5033140;28;20521;-49
2022/09/18 00:32:47;;;;;;;0.40;0.30;;;;;;;12.64;100.00;100217.78;5042193;28;20471;-49
2022/09/18 00:35:14;;;;;;;0.40;0.30;;;;;;;12.59;100.00;100214.38;5044071;28;20490;-49
2022/09/18 00:37:40;;;;;;;0.90;0.60;;;;;;;12.65;100.00;100216.84;5039929;28;20450;-49
2022/09/18 00:40:07;;;;;;;0.40;0.30;;;;;;;12.59;100.00;100217.06;5037836;28;20448;-49
2022/09/18 00:42:34;;;;;;;0.47;0.40;;;;;;;12.58;100.00;100217.13;5044243;28;20471;-50
2022/09/18 00:45:00;;;;;;;0.40;0.30;;;;;;;12.60;100.00;100213.44;5037262;28;20452;-49
2022/09/18 00:47:35;;;;;;;1.60;0.43;;;;;;;12.60;100.00;100212.59;5041817;28;20455;-49
2022/09/18 00:50:14;;;;;;;0.40;0.40;;;;;;;12.57;100.00;100215.38;5043916;28;20893;-49
2022/09/18 00:53:01;;;;;;;0.40;0.40;;;;;;;12.43;100.00;100223.88;5043551;28;20522;-49
2022/09/18 00:55:32;;;;;;;0.40;0.37;;;;;;;12.38;100.00;100216.06;5028622;28;20552;-49
2022/09/18 00:58:01;;;;;;;0.50;0.40;;;;;;;12.36;100.00;100225.94;5037062;28;20455;-49
2022/09/18 01:00:30;;;;;;;2.93;0.60;;;;;;;12.49;100.00;100229.00;5040324;28;20447;-49
2022/09/18 01:03:00;;;;;;;0.40;0.30;;;;;;;12.50;100.00;100222.75;5044122;28;20559;-50
2022/09/18 01:05:45;;;;;;;0.40;0.20;;;;;;;12.50;100.00;100221.88;5039785;28;20451;-49
2022/09/18 01:08:34;;;;;;;3.47;0.87;;;;;;;12.51;100.00;100229.81;5023788;28;20524;-50
2022/09/18 01:11:16;;;;;;;1.17;0.50;;;;;;;12.52;100.00;100228.03;5034119;28;20477;-49
2022/09/18 01:14:09;;;;;;;0.50;0.40;;;;;;;12.59;100.00;100227.72;5042230;28;20447;-49
2022/09/18 01:17:08;;;;;;;3.83;0.40;;;;;;;12.54;100.00;100220.84;5033748;28;20487;-49
2022/09/18 01:19:53;;;;;;;0.50;0.40;;;;;;;12.54;100.00;100224.38;4991214;28;20832;-49
2022/09/18 01:22:45;;;;;;;0.60;0.40;;;;;;;12.63;100.00;100212.50;5033848;28;20537;-49
2022/09/18 01:25:32;;;;;;;0.30;0.20;;;;;;;12.62;100.00;100213.44;5043085;28;20959;-50
2022/09/18 01:28:24;;;;;;;0.70;0.50;;;;;;;12.62;100.00;100222.28;5028509;28;20993;-50
2022/09/18 01:30:56;;;;;;;0.50;0.30;;;;;;;12.65;100.00;100208.84;5036436;28;20452;-48
2022/09/18 01:33:41;;;;;;;0.50;0.30;;;;;;;12.68;100.00;100214.03;5036286;28;20459;-49
2022/09/18 01:36:13;;;;;;;1.30;1.20;;;;;;;12.67;100.00;100217.66;5040100;28;20495;-49
2022/09/18 01:38:47;;;;;;;0.40;0.30;;;;;;;12.90;100.00;100222.09;5042884;28;20537;-49
2022/09/18 01:41:20;;;;;;;1.97;1.33;;;;;;;12.79;100.00;100220.78;5036735;28;20471;-48
2022/09/18 01:43:56;;;;;;;0.40;0.20;;;;;;;12.81;100.00;100213.56;5043369;28;20986;-49
2022/09/18 01:46:23;;;;;;;1.07;0.50;;;;;;;12.71;100.00;100208.59;5043011;28;20442;-50
2022/09/18 01:48:58;;;;;;;0.50;0.40;;;;;;;12.79;100.00;100210.97;5037030;28;20477;-49
2022/09/18 01:51:37;;;;;;;0.40;0.33;;;;;;;12.70;100.00;100209.50;5035741;28;20533;-49
2022/09/18 01:54:09;;;;;;;0.77;0.43;;;;;;;12.85;100.00;100217.84;5039100;28;20455;-49
2022/09/18 01:56:42;;;;;;;3.53;0.60;;;;;;;12.77;100.00;100204.84;5042681;28;20495;-49
2022/09/18 01:59:14;;;;;;;0.40;0.30;;;;;;;12.91;100.00;100213.16;5041146;28;21025;-49
2022/09/18 02:01:43;;;;;;;0.30;0.20;;;;;;;13.00;100.00;100209.25;5035381;28;20501;-49
2022/09/18 02:04:17;;;;;;;1.43;0.60;;;;;;;12.89;100.00;100203.47;5036071;28;20494;-49
2022/09/18 02:06:56;;;;;;;0.40;0.30;;;;;;;13.12;100.00;100200.75;5024437;28;20477;-49
2022/09/18 02:09:23;;;;;;;0.70;0.47;;;;;;;12.97;100.00;100207.56;5035791;28;20812;-50
2022/09/18 02:11:53;;;;;;;0.30;0.20;;;;;;;12.82;100.00;100199.31;5048912;28;20471;-49
2022/09/18 02:14:24;;;;;;;0.40;0.30;;;;;;;12.87;100.00;100200.84;5046021;28;20440;-49
2022/09/18 02:16:55;;;;;;;8.70;0.90;;;;;;;12.79;100.00;100191.44;5040026;28;20490;-49
2022/09/18 02:19:27;;;;;;;5.03;1.43;;;;;;;12.75;100.00;100196.03;5043679;28;20857;-49
2022/09/18 02:21:57;;;;;;;0.40;0.30;;;;;;;12.87;100.00;100197.31;5035775;28;20892;-49
2022/09/18 02:24:28;;;;;;;0.67;0.67;;;;;;;12.78;100.00;100190.56;5042292;28;20529;-49
2022/09/18 02:26:56;;;;;;;9.80;2.00;;;;;;;12.73;100.00;100182.72;5042404;28;20446;-49
2022/09/18 02:29:23;;;;;;;0.40;0.30;;;;;;;12.79;100.00;100183.44;5036598;28;20528;-49
2022/09/18 02:31:50;;;;;;;0.43;0.30;;;;;;;12.74;100.00;100183.59;5035384;28;20471;-49
2022/09/18 02:34:18;;;;;;;0.40;0.30;;;;;;;12.77;100.00;100183.50;5040952;28;20832;-49
2022/09/18 02:37:09;;;;;;;0.40;0.30;;;;;;;12.77;100.00;100183.50;5042311;28;20923;-49
2022/09/18 02:39:49;;;;;;;5.17;0.50;;;;;;;12.64;100.00;100190.22;5040307;28;20454;-49
2022/09/18 02:42:31;;;;;;;0.40;0.37;;;;;;;12.70;100.00;100193.50;5028348;28;20474;-49
2022/09/18 02:45:10;;;;;;;0.40;0.33;;;;;;;12.68;100.00;100198.03;5035247;28;20510;-49
2022/09/18 02:47:58;;;;;;;0.40;0.30;;;;;;;12.65;100.00;100199.97;5037974;28;20447;-49
2022/09/18 02:50:46;;;;;;;0.30;0.20;;;;;;;12.72;100.00;100194.31;5023166;28;20524;-50
2022/09/18 02:53:21;;;;;;;0.60;0.40;;;;;;;12.61;100.00;100193.00;5035210;28;21248;-50
2022/09/18 02:56:18;;;;;;;0.53;0.50;;;;;;;12.58;100.00;100207.31;5037276;28;20521;-50
2022/09/18 02:59:01;;;;;;;0.30;0.20;;;;;;;12.63;100.00;100204.50;5026410;28;20455;-50
2022/09/18 03:01:28;;;;;;;0.50;0.40;;;;;;;12.66;100.00;100199.03;5034879;28;20524;-50
2022/09/18 03:04:02;;;;;;;0.67;0.60;;;;;;;12.57;100.00;100197.56;5037005;28;20952;-50
2022/09/18 03:06:28;;;;;;;0.50;0.40;;;;;;;12.62;100.00;100189.44;5041990;28;20447;-50
2022/09/18 03:08:54;;;;;;;0.43;0.30;;;;;;;12.71;100.00;100181.91;5040962;28;20512;-50
2022/09/18 03:11:21;;;;;;;1.47;0.50;;;;;;;12.63;100.00;100177.81;5029916;28;20498;-50
2022/09/18 03:13:47;;;;;;;0.50;0.30;;;;;;;12.60;100.00;100178.78;5041123;28;20485;-50
2022/09/18 03:16:14;;;;;;;0.40;0.30;;;;;;;12.58;100.00;100185.97;5034664;28;20490;-50
2022/09/18 03:18:40;;;;;;;0.40;0.40;;;;;;;12.66;100.00;100183.91;5048089;28;20455;-50
2022/09/18 03:21:06;;;;;;;0.40;0.30;;;;;;;12.56;100.00;100181.66;5034728;28;20882;-50
2022/09/18 03:23:33;;;;;;;0.30;0.30;;;;;;;12.62;100.00;100176.97;5041836;28;20879;-50
2022/09/18 03:25:59;;;;;;;0.30;0.20;;;;;;;12.63;100.00;100178.69;5041980;28;20509;-50
2022/09/18 03:28:25;;;;;;;0.40;0.30;;;;;;;12.53;100.00;100174.63;5043314;28;20463;-50
2022/09/18 03:30:52;;;;;;;0.30;0.20;;;;;;;12.58;100.00;100172.66;5025503;28;20451;-50
2022/09/18 03:33:18;;;;;;;0.50;0.30;;;;;;;12.59;100.00;100173.50;5038502;28;20455;-50
2022/09/18 03:35:44;;;;;;;0.30;0.20;;;;;;;12.59;100.00;100181.53;5025994;28;20490;-50
2022/09/18 03:38:11;;;;;;;0.47;0.33;;;;;;;12.54;100.00;100186.16;5038903;28;20459;-50
2022/09/18 03:40:37;;;;;;;0.40;0.30;;;;;;;12.53;100.00;100177.31;5045131;28;20538;-50
2022/09/18 03:43:04;;;;;;;0.40;0.20;;;;;;;12.61;100.00;100185.88;5045045;28;20450;-50
2022/09/18 03:45:30;;;;;;;0.30;0.20;;;;;;;12.73;100.00;100189.84;5038938;28;20446;-50
2022/09/18 03:47:57;;;;;;;0.40;0.37;;;;;;;12.62;100.00;100192.97;5038002;28;20451;-51
2022/09/18 03:50:23;;;;;;;0.30;0.20;;;;;;;12.59;100.00;100193.06;5044826;28;20516;-51
2022/09/18 03:52:50;;;;;;;0.30;0.20;;;;;;;12.65;100.00;100192.84;5045143;28;20555;-50
2022/09/18 03:55:17;;;;;;;6.13;0.73;;;;;;;12.53;100.00;100193.31;5038736;28;20599;-50
2022/09/18 03:57:45;;;;;;;0.77;0.50;;;;;;;12.55;100.00;100180.78;5038239;28;20505;-50
2022/09/18 04:00:12;;;;;;;0.40;0.30;;;;;;;12.58;100.00;100193.13;5043856;28;20505;-50
2022/09/18 04:02:39;;;;;;;0.50;0.33;;;;;;;12.64;100.00;100193.75;5044575;28;20540;-50
2022/09/18 04:05:06;;;;;;;0.40;0.30;;;;;;;12.58;100.00;100199.31;5039379;28;20458;-50
2022/09/18 04:07:33;;;;;;;0.40;0.30;;;;;;;12.51;100.00;100196.97;5038159;28;20455;-50
2022/09/18 04:09:59;;;;;;;0.30;0.20;;;;;;;12.56;100.00;100187.84;5043646;28;20505;-50
2022/09/18 04:12:25;;;;;;;0.40;0.30;;;;;;;12.60;100.00;100194.78;5032514;28;20471;-50
2022/09/18 04:14:52;;;;;;;0.40;0.30;;;;;;;12.80;100.00;100187.81;5042866;28;20456;-50
2022/09/18 04:17:18;;;;;;;0.40;0.30;;;;;;;12.63;100.00;100191.16;5046577;28;20946;-50
2022/09/18 04:19:45;;;;;;;0.30;0.20;;;;;;;12.55;100.00;100198.56;5042905;28;20448;-50
2022/09/18 04:22:18;;;;;;;0.30;0.20;;;;;;;12.71;100.00;100199.72;5040549;28;20629;-50
2022/09/18 04:24:45;;;;;;;0.50;0.40;;;;;;;12.64;100.00;100207.09;5041523;28;20506;-50
2022/09/18 04:27:11;;;;;;;0.37;0.23;;;;;;;12.66;100.00;100207.03;5044413;28;20945;-50
2022/09/18 04:29:38;;;;;;;0.40;0.20;;;;;;;12.54;100.00;100211.03;5040879;28;21002;-50
2022/09/18 04:32:04;;;;;;;0.30;0.20;;;;;;;12.63;100.00;100212.50;5037611;28;20474;-50
2022/09/18 04:34:31;;;;;;;0.93;0.30;;;;;;;12.65;100.00;100211.50;5041261;28;20845;-50
2022/09/18 04:36:57;;;;;;;0.30;0.20;;;;;;;12.59;100.00;100210.84;5044020;28;21141;-50
2022/09/18 04:39:24;;;;;;;0.40;0.30;;;;;;;12.60;100.00;100208.13;5040516;28;20541;-50
2022/09/18 04:41:50;;;;;;;0.40;0.30;;;;;;;12.45;100.00;100212.25;5037174;28;20528;-50
2022/09/18 04:44:16;;;;;;;0.40;0.30;;;;;;;12.50;100.00;100216.56;5040772;28;20462;-50
2022/09/18 04:46:43;;;;;;;0.40;0.20;;;;;;;12.43;100.00;100211.44;5044365;28;20440;-50
2022/09/18 04:49:09;;;;;;;0.50;0.30;;;;;;;12.48;100.00;100216.63;5040484;28;21033;-50
2022/09/18 04:51:36;;;;;;;0.30;0.30;;;;;;;12.36;100.00;100217.06;5036984;28;20478;-50
2022/09/18 04:54:02;;;;;;;0.30;0.20;;;;;;;12.38;100.00;100221.41;5040820;28;20522;-51
2022/09/18 04:56:29;;;;;;;2.10;0.50;;;;;;;12.51;100.00;100208.50;5043848;28;20582;-50
2022/09/18 04:58:55;;;;;;;0.67;0.67;;;;;;;12.48;100.00;100219.28;5040895;28;20952;-50
2022/09/18 05:01:22;;;;;;;0.40;0.40;;;;;;;12.53;100.00;100217.28;5037648;28;20478;-50
2022/09/18 05:03:48;;;;;;;0.63;0.50;;;;;;;12.67;100.00;100212.31;5040240;28;20478;-50
2022/09/18 05:06:14;;;;;;;3.40;0.70;;;;;;;12.44;100.00;100209.63;5043693;28;20456;-50
2022/09/18 05:08:41;;;;;;;0.47;0.33;;;;;;;12.47;100.00;100204.19;5040511;28;20450;-50
2022/09/18 05:11:07;;;;;;;0.60;0.60;;;;;;;12.48;100.00;100205.94;5036766;28;20540;-50
2022/09/18 05:13:33;;;;;;;0.53;0.53;;;;;;;12.43;100.00;100216.75;5040663;28;20460;-50
2022/09/18 05:16:00;;;;;;;0.50;0.40;;;;;;;12.54;100.00;100215.50;5040470;28;20487;-50
2022/09/18 05:18:26;;;;;;;0.40;0.20;;;;;;;12.48;100.00;100219.28;5050883;28;20673;-51
2022/09/18 05:20:53;;;;;;;0.30;0.20;;;;;;;12.49;100.00;100218.34;5037354;28;20650;-51
2022/09/18 05:23:20;;;;;;;0.33;0.27;;;;;;;12.43;100.00;100223.88;5043682;28;20459;-51
2022/09/18 05:25:46;;;;;;;0.40;0.30;;;;;;;12.57;100.00;100224.25;5037027;28;20512;-51
2022/09/18 05:28:14;;;;;;;0.50;0.40;;;;;;;12.48;100.00;100227.28;5039287;28;20455;-50
2022/09/18 05:30:40;;;;;;;0.40;0.30;;;;;;;12.41;100.00;100221.28;5034436;28;20982;-51
2022/09/18 05:33:09;;;;;;;0.30;0.20;;;;;;;12.33;100.00;100222.47;5021338;28;20478;-51
2022/09/18 05:35:38;;;;;;;0.30;0.20;;;;;;;12.35;100.00;100216.19;5043738;28;20447;-51
2022/09/18 05:38:05;;;;;;;0.30;0.20;;;;;;;12.29;100.00;100215.53;5042167;28;20500;-51
2022/09/18 05:40:35;;;;;;;0.30;0.20;;;;;;;12.21;100.00;100217.63;5036342;28;21295;-50
2022/09/18 05:43:02;;;;;;;0.40;0.20;;;;;;;12.28;100.00;100214.66;5043963;28;20562;-50
2022/09/18 05:45:28;;;;;;;0.40;0.30;;;;;;;12.25;100.00;100228.13;5036437;28;20504;-50
2022/09/18 05:48:00;;;;;;;0.30;0.20;;;;;;;12.20;100.00;100226.53;5036774;28;20459;-51
2022/09/18 05:50:27;;;;;;;0.40;0.33;;;;;;;12.22;100.00;100222.03;5020114;28;20471;-51
2022/09/18 05:53:04;;;;;;;0.40;0.30;;;;;;;12.24;100.00;100225.50;5029619;28;20472;-51
2022/09/18 05:55:32;;;;;;;0.30;0.20;;;;;;;12.26;100.00;100224.53;5031379;28;20455;-51
2022/09/18 05:57:59;;;;;;;0.40;0.30;;;;;;;12.25;100.00;100229.91;5034803;28;20509;-51
2022/09/18 06:00:28;;;;;;;3.90;0.30;;;;;;;12.23;100.00;100224.63;5038745;28;20450;-51
2022/09/18 06:03:03;;;;;;;0.30;0.20;;;;;;;12.34;100.00;100233.13;5035638;28;20843;-51
2022/09/18 06:05:31;;;;;;;0.43;0.30;;;;;;;12.40;100.00;100232.88;5027395;28;20543;-51
2022/09/18 06:07:58;;;;;;;0.30;0.30;;;;;;;12.36;100.00;100228.59;5044277;28;20455;-51
2022/09/18 06:10:26;;;;;;;0.30;0.20;;;;;;;12.50;100.00;100220.09;5037552;28;20455;-51
2022/09/18 06:13:02;;;;;;;0.30;0.20;;;;;;;12.50;100.00;100221.88;5033332;28;20987;-51
2022/09/18 06:15:28;;;;;;;0.50;0.30;;;;;;;12.57;100.00;100220.72;5035760;28;20451;-52
2022/09/18 06:17:54;;;;;;;0.40;0.30;;;;;;;12.49;100.00;100223.69;5021825;28;21007;-51
2022/09/18 06:20:21;;;;;;;0.40;0.30;;;;;;;12.55;100.00;100218.09;5035982;28;20460;-51
2022/09/18 06:22:47;;;;;;;0.40;0.33;;;;;;;12.55;100.00;100218.09;5042293;28;20528;-51
2022/09/18 06:25:17;;;;;;;0.30;0.20;;;;;;;12.60;100.00;100225.91;5035663;28;20455;-51
2022/09/18 06:27:43;;;;;;;0.50;0.20;;;;;;;12.70;100.00;100228.19;5041520;28;20509;-51
2022/09/18 06:30:10;;;;;;;0.50;0.40;;;;;;;12.77;100.00;100233.31;5033884;28;20487;-50
2022/09/18 06:32:37;;;;;;;0.30;0.20;;;;;;;12.77;100.00;100235.97;5033065;28;20596;-51
2022/09/18 06:35:04;;;;;;;0.40;0.30;;;;;;;12.59;100.00;100230.38;5024276;28;20952;-50
2022/09/18 06:37:30;;;;;;;0.50;0.40;;;;;;;12.60;100.00;100234.78;5036768;28;20494;-51
2022/09/18 06:39:57;;;;;;;0.70;0.30;;;;;;;12.71;100.00;100235.25;5035269;28;20510;-50
2022/09/18 06:42:23;;;;;;;0.30;0.20;;;;;;;12.60;100.00;100242.78;5037809;28;20540;-51
2022/09/18 06:44:49;;;;;;;0.30;0.20;;;;;;;12.57;100.00;100237.56;5042776;28;20524;-50
2022/09/18 06:47:16;;;;;;;7.70;0.30;;;;;;;12.58;100.00;100236.66;5030554;28;20577;-50
2022/09/18 06:49:42;;;;;;;0.50;0.30;;;;;;;12.61;100.00;100241.00;5034744;28;21093;-50
2022/09/18 06:52:09;;;;;;;0.40;0.30;;;;;;;12.74;100.00;100239.59;5040903;28;20475;-52
2022/09/18 06:54:35;;;;;;;0.60;0.40;;;;;;;12.68;100.00;100239.84;5030987;28;20464;-52
2022/09/18 06:57:01;;;;;;;1.00;0.40;;;;;;;12.71;100.00;100250.38;5040749;28;20491;-52
2022/09/18 06:59:28;;;;;;;0.73;0.30;;;;;;;12.84;100.00;100250.78;5042175;28;20584;-52
2022/09/18 07:01:54;;;;;;;0.87;0.87;;;;;;;12.92;100.00;100249.59;5027892;28;20475;-52
2022/09/18 07:04:21;;;;;;;0.40;0.30;;;;;;;12.82;100.00;100256.19;5033031;28;20467;-53
2022/09/18 07:06:47;;;;;;;0.40;0.30;;;;;;;12.95;100.00;100241.44;5044576;28;20452;-53
2022/09/18 07:09:14;;;;;;;0.30;0.20;;;;;;;12.95;100.00;100245.91;5046164;28;20450;-50
2022/09/18 07:11:40;;;;;;;0.57;0.33;;;;;;;12.92;100.00;100244.25;5032849;28;20478;-51
2022/09/18 07:14:07;;;;;;;0.30;0.20;;;;;;;12.96;100.00;100240.53;5036458;28;20517;-51
2022/09/18 07:16:34;;;;;;;1.77;0.40;;;;;;;13.03;100.00;100249.16;5045200;28;20563;-51
2022/09/18 07:19:01;;;;;;;0.40;0.30;;;;;;;13.04;100.00;100249.09;5049804;28;20454;-53
2022/09/18 07:21:28;;;;;;;0.40;0.30;;;;;;;13.12;100.00;100242.56;5033706;28;20494;-51
2022/09/18 07:23:54;;;;;;;0.30;0.20;;;;;;;13.31;100.00;100246.31;5045793;28;20450;-51
2022/09/18 07:26:20;;;;;;;0.30;0.30;;;;;;;13.30;100.00;100241.91;5042052;28;20454;-51
2022/09/18 07:28:47;;;;;;;0.83;0.67;;;;;;;13.31;100.00;100241.81;5038326;28;21084;-52
2022/09/18 07:31:13;;;;;;;0.50;0.40;;;;;;;13.48;100.00;100245.59;5042149;28;20479;-52
2022/09/18 07:33:40;;;;;;;0.50;0.40;;;;;;;13.62;100.00;100240.56;5042754;28;20459;-52
2022/09/18 07:36:06;;;;;;;5.13;0.50;;;;;;;13.64;100.00;100249.38;5032378;28;20455;-52
2022/09/18 07:38:33;;;;;;;0.70;0.47;;;;;;;13.63;100.00;100252.97;5034551;28;20460;-51
2022/09/18 07:41:03;;;;;;;0.40;0.30;;;;;;;13.74;100.00;100253.41;5042741;28;20516;-50
2022/09/18 07:43:30;;;;;;;0.40;0.30;;;;;;;13.67;100.00;100256.38;5045807;28;21233;-51
2022/09/18 07:45:56;;;;;;;0.50;0.50;;;;;;;13.99;100.00;100255.03;5042342;28;20450;-51
2022/09/18 07:48:23;;;;;;;0.40;0.40;;;;;;;13.99;100.00;100250.56;5038406;28;20451;-53
2022/09/18 07:50:49;;;;;;;0.40;0.30;;;;;;;14.10;100.00;100253.59;5041588;28;20890;-51
2022/09/18 07:53:17;;;;;;;1.27;0.73;;;;;;;14.06;99.17;100249.34;5045414;28;20455;-51
2022/09/18 07:55:46;;;;;;;1.03;0.40;;;;;;;14.29;99.20;100248.34;5042357;28;20454;-53
2022/09/18 07:58:13;;;;;;;2.83;0.40;;;;;;;14.39;98.11;100252.34;5038036;28;20498;-50
2022/09/18 08:00:39;;;;;;;1.00;0.40;;;;;;;14.38;97.49;100255.94;5040685;28;20517;-50
2022/09/18 08:03:11;;;;;;;0.50;0.40;;;;;;;14.36;98.16;100257.81;5045377;28;20462;-50
2022/09/18 08:05:39;;;;;;;0.50;0.43;;;;;;;14.53;98.42;100254.44;5044156;28;20457;-50
2022/09/18 08:08:14;;;;;;;0.40;0.30;;;;;;;14.85;97.38;100257.44;5038103;28;20447;-51
2022/09/18 08:10:42;;;;;;;3.60;0.60;;;;;;;14.75;96.70;100263.19;5038201;28;21023;-50
2022/09/18 08:13:09;;;;;;;0.63;0.53;;;;;;;14.99;97.14;100253.16;5026557;28;20451;-51
2022/09/18 08:15:39;;;;;;;0.50;0.40;;;;;;;14.80;97.10;100255.84;5037627;28;20878;-51
2022/09/18 08:18:06;;;;;;;0.60;0.43;;;;;;;14.87;94.75;100253.72;5051399;28;20494;-51
2022/09/18 08:20:33;;;;;;;0.53;0.43;;;;;;;14.78;95.80;100252.34;5038004;28;20768;-51
2022/09/18 08:23:05;;;;;;;2.80;1.07;;;;;;;14.87;95.43;100256.41;5044769;28;21362;-52
2022/09/18 08:25:32;;;;;;;4.50;0.80;;;;;;;14.66;94.85;100257.38;5037964;28;20455;-52
2022/09/18 08:28:00;;;;;;;0.60;0.40;;;;;;;14.47;95.05;100254.69;5041591;28;20876;-51
2022/09/18 08:30:28;;;;;;;0.70;0.60;;;;;;;14.67;95.07;100261.84;5044718;28;20455;-52
2022/09/18 08:33:02;;;;;;;0.70;0.70;;;;;;;14.65;94.17;100252.97;5041005;28;20509;-51
2022/09/18 08:35:29;;;;;;;0.50;0.40;;;;;;;14.58;93.97;100259.56;5037422;28;20822;-52
2022/09/18 08:37:56;;;;;;;1.43;0.40;;;;;;;14.54;93.80;100256.16;5039610;28;20495;-51
2022/09/18 08:40:44;;;;;;;1.27;0.70;;;;;;;14.68;93.76;100251.06;5044548;28;20459;-52
2022/09/18 08:43:26;;;;;;;0.53;0.50;;;;;;;14.60;93.59;100249.66;5038814;28;20504;-51
2022/09/18 08:45:59;;;;;;;1.23;0.63;;;;;;;14.74;92.91;100248.09;5040478;28;20451;-52
2022/09/18 08:48:34;;;;;;;0.70;0.50;;;;;;;14.69;92.80;100242.09;5037612;28;20443;-51
2022/09/18 08:51:29;;;;;;;0.73;0.63;;;;;;;14.92;92.53;100240.13;5053635;22;20557;-54
2022/09/18 08:54:09;;;;;;;0.60;0.50;;;;;;;15.04;92.95;100244.91;5022646;28;20455;-54
2022/09/18 08:56:36;;;;;;;1.50;0.60;;;;;;;14.88;91.55;100242.09;5037228;28;20451;-54
2022/09/18 08:59:10;;;;;;;0.60;0.60;;;;;;;15.28;91.94;100234.81;5039619;28;20529;-54
2022/09/18 09:01:50;;;;;;;2.30;0.40;;;;;;;14.88;90.80;100242.09;5044161;28;20472;-53
2022/09/18 09:04:24;;;;;;;1.83;1.00;;;;;;;15.12;91.02;100245.41;5043732;28;20874;-54
2022/09/18 09:07:03;;;;;;;3.00;0.50;;;;;;;15.21;91.09;100246.75;5039546;28;20446;-54
2022/09/18 09:09:52;;;;;;;1.90;0.90;;;;;;;14.97;89.68;100241.66;5037392;28;20974;-54
2022/09/18 09:12:46;;;;;;;0.47;0.40;;;;;;;15.04;89.60;100259.16;5036746;28;20430;-54
2022/09/18 09:15:16;;;;;;;1.27;0.67;;;;;;;14.90;90.44;100242.00;5039516;28;20506;-54
2022/09/18 09:18:15;;;;;;;0.60;0.60;;;;;;;15.19;90.20;100251.31;5043466;28;21003;-54
2022/09/18 09:20:54;;;;;;;0.63;0.50;;;;;;;15.30;89.58;100244.50;5044034;28;20911;-54
2022/09/18 09:23:36;;;;;;;1.03;0.40;;;;;;;15.26;88.96;100244.75;5030133;28;20482;-54
2022/09/18 09:26:09;;;;;;;0.53;0.50;;;;;;;15.27;89.39;100244.66;5023811;28;20876;-55
2022/09/18 09:29:12;;;;;;;0.50;0.30;;;;;;;15.00;89.34;100244.19;5036762;28;20451;-54
2022/09/18 09:31:43;;;;;;;0.40;0.30;;;;;;;15.17;88.90;100243.38;5036532;28;20482;-54
2022/09/18 09:34:19;;;;;;;9.53;0.67;;;;;;;15.23;89.37;100234.19;5024287;28;20446;-54
2022/09/18 09:36:48;;;;;;;0.50;0.30;;;;;;;15.34;88.12;100239.88;5036708;28;20454;-54
2022/09/18 09:39:27;;;;;;;0.60;0.40;;;;;;;15.37;88.17;100234.38;5040910;28;20455;-54
2022/09/18 09:42:02;;;;;;;0.50;0.40;;;;;;;15.47;86.98;100234.78;5041418;28;20494;-54
2022/09/18 09:44:43;;;;;;;0.50;0.30;;;;;;;15.64;87.45;100232.19;5037869;28;20500;-54
2022/09/18 09:47:34;;;;;;;5.33;0.97;;;;;;;15.52;87.18;100232.75;5025918;28;20450;-54
2022/09/18 09:50:15;;;;;;;0.57;0.50;;;;;;;15.53;86.85;100231.81;5036527;28;20471;-54
2022/09/18 09:52:48;;;;;;;0.40;0.30;;;;;;;15.42;86.32;100235.00;5036633;28;20521;-54
2022/09/18 09:55:28;;;;;;;0.70;0.67;;;;;;;15.68;86.42;100239.97;5025450;28;20962;-54
2022/09/18 09:58:21;;;;;;;0.50;0.30;;;;;;;15.77;84.34;100235.97;5035942;28;20543;-54
2022/09/18 10:01:09;;;;;;;0.50;0.43;;;;;;;15.98;85.14;100239.34;5035892;28;20533;-53
2022/09/18 10:04:14;;;;;;;0.60;0.50;;;;;;;15.77;85.49;100240.47;5028712;28;20451;-54
2022/09/18 10:07:16;;;;;;;0.87;0.60;;;;;;;15.80;86.13;100240.31;5007437;28;20502;-54
2022/09/18 10:09:49;;;;;;;2.37;0.47;;;;;;;15.84;86.10;100244.56;5042783;28;20448;-54
2022/09/18 10:12:41;;;;;;;22.70;1.97;;;;;;;15.74;85.42;100236.09;5042901;28;20477;-54
2022/09/18 10:15:25;;;;;;;0.70;0.43;;;;;;;15.87;86.29;100229.16;5035763;28;20497;-55
2022/09/18 10:17:55;;;;;;;0.50;0.40;;;;;;;15.94;85.07;100230.59;5035624;28;20494;-54
2022/09/18 10:20:26;;;;;;;0.77;0.47;;;;;;;16.08;84.03;100229.03;5035785;28;20475;-54
2022/09/18 10:22:57;;;;;;;1.87;0.97;;;;;;;16.15;84.07;100233.09;5023613;28;20879;-54
2022/09/18 10:25:38;;;;;;;0.60;0.40;;;;;;;15.90;83.41;100229.03;5042722;28;20859;-54
2022/09/18 10:28:05;;;;;;;2.93;0.70;;;;;;;16.10;83.55;100236.03;5021311;28;21246;-55
2022/09/18 10:30:31;;;;;;;1.00;0.50;;;;;;;16.21;83.21;100219.38;5035659;28;20620;-54
2022/09/18 10:32:58;;;;;;;0.50;0.37;;;;;;;16.28;82.39;100223.47;5039269;28;20877;-55
2022/09/18 10:35:34;;;;;;;0.60;0.40;;;;;;;16.24;81.76;100212.03;5038948;28;20429;-54
2022/09/18 10:38:01;;;;;;;0.60;0.50;;;;;;;16.43;82.46;100222.63;5019798;28;20494;-54
2022/09/18 10:40:30;;;;;;;4.70;0.70;;;;;;;16.42;81.57;100214.69;5042394;28;21079;-54
2022/09/18 10:42:58;;;;;;;1.20;1.10;;;;;;;16.25;82.42;100226.31;5040751;28;20459;-54
2022/09/18 10:45:40;;;;;;;0.50;0.30;;;;;;;16.31;81.09;100226.00;5035512;28;20941;-54
2022/09/18 10:48:15;;;;;;;0.40;0.30;;;;;;;16.41;82.35;100210.25;5035321;28;20493;-54
2022/09/18 10:50:56;;;;;;;0.90;0.40;;;;;;;16.24;81.80;100220.09;5039996;28;20830;-56
2022/09/18 10:53:28;;;;;;;0.57;0.47;;;;;;;16.42;81.26;100225.41;5042203;28;20451;-55
2022/09/18 10:56:02;;;;;;;0.50;0.40;;;;;;;16.23;81.89;100223.72;5040537;28;20512;-54
2022/09/18 10:58:30;;;;;;;1.93;0.60;;;;;;;16.12;81.27;100219.88;5035240;28;20490;-54
2022/09/18 11:01:06;;;;;;;1.17;0.83;;;;;;;15.96;81.18;100212.63;5035757;28;20471;-54
2022/09/18 11:03:38;;;;;;;0.50;0.30;;;;;;;15.91;81.38;100213.81;5024831;28;20461;-54
2022/09/18 11:06:14;;;;;;;0.60;0.40;;;;;;;16.02;81.97;100203.38;5046105;28;20512;-54
2022/09/18 11:08:47;;;;;;;0.40;0.40;;;;;;;16.10;81.21;100208.34;5039476;28;20935;-54
2022/09/18 11:11:34;;;;;;;6.73;0.50;;;;;;;16.14;80.85;100216.16;5035197;28;20516;-55
2022/09/18 11:14:18;;;;;;;1.80;0.50;;;;;;;16.07;80.67;100204.03;5035422;28;20525;-55
2022/09/18 11:16:51;;;;;;;1.90;0.60;;;;;;;16.13;81.05;100203.69;5041319;28;20876;-56
2022/09/18 11:19:28;;;;;;;0.60;0.40;;;;;;;16.19;80.88;100199.84;5026230;28;21081;-55
2022/09/18 11:21:59;;;;;;;3.00;0.63;;;;;;;16.27;79.74;100201.13;5035082;28;20466;-55
2022/09/18 11:24:27;;;;;;;0.77;0.50;;;;;;;16.25;79.98;100196.81;5023028;28;20455;-55
2022/09/18 11:26:56;;;;;;;2.00;0.67;;;;;;;16.44;79.38;100196.69;5034999;28;20456;-55
2022/09/18 11:29:38;;;;;;;0.50;0.30;;;;;;;16.40;79.42;100197.81;5041229;28;20455;-55
2022/09/18 11:32:28;;;;;;;3.43;0.60;;;;;;;16.32;77.20;100192.88;5041705;28;20467;-55
2022/09/18 11:34:57;;;;;;;0.70;0.70;;;;;;;16.55;78.05;100186.22;5035649;28;20482;-55
2022/09/18 11:37:34;;;;;;;0.70;0.43;;;;;;;16.45;77.36;100182.34;5015571;28;20535;-55
2022/09/18 11:40:26;;;;;;;0.70;0.70;;;;;;;16.32;77.00;100176.78;5041927;28;20466;-55